Time;durP1;ratioP1;P1;durP2;ratioP2;P2;SDS_P1;SDS_P2;PMS_P1;PMS_P2;Temp;Humidity;BMP_temperature;BMP_pressure;BME280_temperature;BME280_humidity;BME280_pressure;Samples;Min_cycle;Max_cycle;Signal;HPM_P1;HPM_P2
2022/03/24 00:02:16;;;;;;;47.35;30.23;;;13.00;38.50;;;;;;4983982;28;20047;-84
2022/03/24 00:04:42;;;;;;;42.78;30.52;;;13.00;39.30;;;;;;4979739;28;20034;-82
2022/03/24 00:07:08;;;;;;;49.78;32.58;;;13.00;39.30;;;;;;4989822;28;20510;-83
2022/03/24 00:09:33;;;;;;;49.03;34.20;;;12.90;39.80;;;;;;4974402;28;20089;-83
2022/03/24 00:11:59;;;;;;;58.38;33.00;;;12.80;39.50;;;;;;4977099;28;20554;-83
2022/03/24 00:14:26;;;;;;;49.60;35.63;;;12.70;39.20;;;;;;4982199;28;20472;-84
2022/03/24 00:16:51;;;;;;;53.75;35.72;;;12.70;40.00;;;;;;4972790;28;20474;-84
2022/03/24 00:19:17;;;;;;;59.28;37.25;;;12.60;39.70;;;;;;4977059;28;20085;-84
2022/03/24 00:21:44;;;;;;;50.88;34.45;;;12.50;39.70;;;;;;4976482;28;20459;-84
2022/03/24 00:24:10;;;;;;;55.45;37.13;;;12.50;39.60;;;;;;4975055;28;20039;-85
2022/03/24 00:26:37;;;;;;;60.90;39.63;;;12.50;39.50;;;;;;4990648;28;20129;-83
2022/03/24 00:29:03;;;;;;;66.55;41.30;;;12.40;39.60;;;;;;4977246;28;20030;-83
2022/03/24 00:31:30;;;;;;;67.45;41.55;;;12.40;39.40;;;;;;4977679;28;20402;-83
2022/03/24 00:33:56;;;;;;;59.55;37.90;;;12.30;40.00;;;;;;4993471;28;20038;-84
2022/03/24 00:36:22;;;;;;;56.22;37.05;;;12.30;40.20;;;;;;4994148;28;20088;-84
2022/03/24 00:38:52;;;;;;;56.88;38.97;;;12.40;40.40;;;;;;4988434;28;20134;-85
2022/03/24 00:41:19;;;;;;;69.43;43.35;;;12.40;40.00;;;;;;4983145;28;20453;-84
2022/03/24 00:43:48;;;;;;;65.75;43.65;;;12.30;39.90;;;;;;4985149;28;20070;-83
2022/03/24 00:46:20;;;;;;;71.55;45.42;;;12.20;40.90;;;;;;4989609;28;20486;-84
2022/03/24 00:48:46;;;;;;;68.00;44.03;;;12.10;40.80;;;;;;4993651;28;20050;-84
2022/03/24 00:51:12;;;;;;;65.47;43.67;;;12.00;41.10;;;;;;4994003;28;20039;-84
2022/03/24 00:53:38;;;;;;;69.57;44.40;;;12.00;41.00;;;;;;4975789;28;20541;-84
2022/03/24 00:56:04;;;;;;;67.47;44.50;;;12.00;40.60;;;;;;4994541;28;20066;-82
2022/03/24 00:58:30;;;;;;;61.00;42.13;;;11.90;40.90;;;;;;4970212;28;20078;-81
2022/03/24 01:00:56;;;;;;;61.63;41.58;;;11.80;41.50;;;;;;4984419;28;20102;-81
2022/03/24 01:03:21;;;;;;;59.65;38.55;;;11.70;42.00;;;;;;4993626;28;20413;-80
2022/03/24 01:05:48;;;;;;;64.13;40.05;;;11.70;42.00;;;;;;4974434;28;20038;-80
2022/03/24 01:08:16;;;;;;;55.55;36.25;;;11.70;42.40;;;;;;4992878;28;20089;-80
2022/03/24 01:10:43;;;;;;;47.70;35.85;;;11.70;42.60;;;;;;4964867;28;20089;-81
2022/03/24 01:13:09;;;;;;;57.67;36.40;;;11.60;42.50;;;;;;4976854;28;20118;-82
2022/03/24 01:15:36;;;;;;;52.22;34.92;;;11.70;43.10;;;;;;4986486;28;20039;-82
2022/03/24 01:18:02;;;;;;;56.53;34.17;;;11.60;42.50;;;;;;4989206;28;20070;-81
2022/03/24 01:20:30;;;;;;;52.53;32.65;;;11.60;42.80;;;;;;4976434;28;20037;-81
2022/03/24 01:22:55;;;;;;;52.53;31.67;;;11.60;42.60;;;;;;4979082;28;20043;-82
2022/03/24 01:25:23;;;;;;;47.97;30.85;;;11.60;42.70;;;;;;4975303;28;20026;-84
2022/03/24 01:27:51;;;;;;;48.53;31.05;;;11.60;42.90;;;;;;4977496;28;20485;-83
2022/03/24 01:30:17;;;;;;;52.33;32.25;;;11.60;42.80;;;;;;4977150;28;20045;-84
2022/03/24 01:32:45;;;;;;;50.72;30.98;;;11.60;43.70;;;;;;4977471;28;20043;-84
2022/03/24 01:35:11;;;;;;;44.50;29.42;;;11.50;43.60;;;;;;4978048;28;20023;-84
2022/03/24 01:37:37;;;;;;;40.97;28.13;;;11.50;43.60;;;;;;4997885;28;20041;-86
2022/03/24 01:40:07;;;;;;;49.05;29.05;;;11.50;44.30;;;;;;4991762;28;20026;-86
2022/03/24 01:42:34;;;;;;;45.47;27.48;;;11.50;44.40;;;;;;4980793;28;20034;-84
2022/03/24 01:45:01;;;;;;;42.00;26.88;;;11.40;44.80;;;;;;4987847;28;21105;-84
2022/03/24 01:47:27;;;;;;;43.20;26.00;;;11.40;45.70;;;;;;4992945;28;20473;-84
2022/03/24 01:49:58;;;;;;;41.03;25.90;;;11.40;45.90;;;;;;4980502;28;20043;-83
2022/03/24 01:52:25;;;;;;;34.58;22.15;;;11.40;46.30;;;;;;4978596;28;20031;-83
2022/03/24 01:54:54;;;;;;;38.38;22.00;;;11.50;46.30;;;;;;4997995;28;20049;-83
2022/03/24 01:57:21;;;;;;;31.13;21.90;;;11.70;45.90;;;;;;4991139;28;20386;-85
2022/03/24 01:59:49;;;;;;;34.30;20.75;;;11.70;46.50;;;;;;4981212;28;20129;-85
2022/03/24 02:02:16;;;;;;;31.20;20.42;;;11.70;46.90;;;;;;4998133;28;20065;-83
2022/03/24 02:04:43;;;;;;;30.63;21.08;;;11.80;47.00;;;;;;4979903;28;20375;-82
2022/03/24 02:07:10;;;;;;;28.70;21.13;;;11.90;46.90;;;;;;4980018;28;20047;-82
2022/03/24 02:09:37;;;;;;;37.28;20.33;;;11.90;46.50;;;;;;4992869;28;20033;-81
2022/03/24 02:12:08;;;;;;;38.97;20.38;;;12.00;47.10;;;;;;4980040;28;20046;-82
2022/03/24 02:14:35;;;;;;;33.10;20.65;;;12.00;47.20;;;;;;4975706;28;20035;-82
2022/03/24 02:17:02;;;;;;;42.03;21.58;;;11.90;46.90;;;;;;4994114;28;20073;-85
2022/03/24 02:19:28;;;;;;;29.35;19.70;;;11.80;47.80;;;;;;4998044;28;20042;-86
2022/03/24 02:22:03;;;;;;;31.52;20.60;;;11.70;47.60;;;;;;4988404;28;20042;-87
2022/03/24 02:24:29;;;;;;;32.85;20.70;;;11.70;47.80;;;;;;4961421;28;20118;-87
2022/03/24 02:26:59;;;;;;;32.28;19.98;;;11.50;48.10;;;;;;4961732;28;20058;-87
2022/03/24 02:29:25;;;;;;;27.57;19.20;;;11.40;48.40;;;;;;4988224;28;20034;-87
2022/03/24 02:31:52;;;;;;;33.70;20.48;;;11.40;48.30;;;;;;4998882;28;20129;-87
2022/03/24 02:34:47;;;;;;;36.83;20.70;;;11.40;48.40;;;;;;4981818;28;20125;-87
2022/03/24 02:37:17;;;;;;;37.28;21.88;;;11.20;48.90;;;;;;4962313;28;20059;-87
2022/03/24 02:39:45;;;;;;;41.00;21.92;;;11.20;49.00;;;;;;4987208;28;20038;-87
2022/03/24 02:42:14;;;;;;;34.63;22.45;;;11.10;49.50;;;;;;4982129;28;20043;-87
2022/03/24 02:44:43;;;;;;;33.40;22.60;;;11.10;49.40;;;;;;4998959;28;20045;-87
2022/03/24 02:47:10;;;;;;;37.80;22.83;;;11.00;49.90;;;;;;4978667;28;20048;-84
2022/03/24 02:49:37;;;;;;;40.17;23.45;;;10.90;49.60;;;;;;4989665;28;20034;-85
2022/03/24 02:52:03;;;;;;;42.03;24.67;;;10.90;49.60;;;;;;4997695;28;20043;-85
2022/03/24 02:54:30;;;;;;;46.20;25.95;;;10.80;50.30;;;;;;4998138;28;20038;-86
2022/03/24 02:56:56;;;;;;;33.58;25.08;;;10.80;49.80;;;;;;4974004;28;20045;-86
2022/03/24 02:59:23;;;;;;;40.95;25.42;;;10.70;50.00;;;;;;4972663;28;20077;-86
2022/03/24 03:02:00;;;;;;;36.70;25.80;;;10.60;50.00;;;;;;4979756;28;20101;-84
2022/03/24 03:04:28;;;;;;;40.67;25.25;;;10.60;50.30;;;;;;4997145;28;20081;-84
2022/03/24 03:06:54;;;;;;;35.88;25.70;;;10.50;50.20;;;;;;4980786;28;20073;-84
2022/03/24 03:09:21;;;;;;;37.60;25.02;;;10.50;50.40;;;;;;4960015;28;20431;-84
2022/03/24 03:11:48;;;;;;;41.47;25.30;;;10.40;50.20;;;;;;4987805;28;20463;-81
2022/03/24 03:14:15;;;;;;;37.20;25.92;;;10.40;50.20;;;;;;4980165;28;20062;-81
2022/03/24 03:16:42;;;;;;;40.75;25.67;;;10.40;50.20;;;;;;4974422;28;20034;-81
2022/03/24 03:19:08;;;;;;;43.15;26.20;;;10.30;50.50;;;;;;4985798;28;20038;-81
2022/03/24 03:21:36;;;;;;;36.67;25.63;;;10.30;50.70;;;;;;4977720;28;20095;-80
2022/03/24 03:24:03;;;;;;;41.30;24.73;;;10.40;50.60;;;;;;4995042;28;20398;-81
2022/03/24 03:26:29;;;;;;;39.70;26.00;;;10.40;50.60;;;;;;4972220;28;20049;-81
2022/03/24 03:28:55;;;;;;;33.95;23.88;;;10.40;51.10;;;;;;4975858;28;20045;-81
2022/03/24 03:31:21;;;;;;;38.75;25.38;;;10.40;51.20;;;;;;4978052;28;20466;-81
2022/03/24 03:33:47;;;;;;;42.05;25.75;;;10.40;51.50;;;;;;4994970;28;20110;-81
2022/03/24 03:36:13;;;;;;;38.60;24.90;;;10.40;51.70;;;;;;4977496;28;20034;-81
2022/03/24 03:38:39;;;;;;;39.25;26.55;;;10.30;51.50;;;;;;4975906;28;20042;-82
2022/03/24 03:41:06;;;;;;;42.10;27.13;;;10.40;51.90;;;;;;4963603;28;20454;-83
2022/03/24 03:43:32;;;;;;;38.42;27.05;;;10.30;51.80;;;;;;4980624;28;20043;-81
2022/03/24 03:45:59;;;;;;;41.63;27.13;;;10.20;52.00;;;;;;4978838;28;20170;-83
2022/03/24 03:48:25;;;;;;;42.08;28.02;;;10.10;51.70;;;;;;4986527;28;20046;-83
2022/03/24 03:50:51;;;;;;;39.97;26.58;;;10.10;52.00;;;;;;4975896;28;20112;-83
2022/03/24 03:53:16;;;;;;;42.63;26.80;;;10.10;52.20;;;;;;4968349;28;20478;-82
2022/03/24 03:55:43;;;;;;;38.92;27.80;;;10.00;52.10;;;;;;4977818;28;20046;-83
2022/03/24 03:58:11;;;;;;;38.03;26.95;;;10.00;52.30;;;;;;4977554;28;20045;-83
2022/03/24 04:00:52;;;;;;;44.70;28.30;;;10.00;52.30;;;;;;4994582;28;20606;-82
2022/03/24 04:03:25;;;;;;;42.45;27.52;;;10.00;52.00;;;;;;4973022;28;20042;-83
2022/03/24 04:05:59;;;;;;;41.20;28.23;;;9.90;52.20;;;;;;4977883;28;20038;-83
2022/03/24 04:08:27;;;;;;;33.85;25.15;;;9.90;52.40;;;;;;4977063;28;20652;-84
2022/03/24 04:10:53;;;;;;;36.28;25.20;;;9.90;52.10;;;;;;4994711;28;20050;-83
2022/03/24 04:13:19;;;;;;;37.92;25.27;;;10.00;51.90;;;;;;4985290;28;20023;-83
2022/03/24 04:15:46;;;;;;;40.83;27.17;;;10.00;51.90;;;;;;4977687;28;20042;-84
2022/03/24 04:18:16;;;;;;;47.40;28.73;;;10.10;51.00;;;;;;4977117;28;20035;-84
2022/03/24 04:20:42;;;;;;;45.85;28.50;;;10.00;50.40;;;;;;4994640;28;20482;-85
2022/03/24 04:23:08;;;;;;;46.30;30.23;;;9.80;50.50;;;;;;4977551;28;20041;-84
2022/03/24 04:25:35;;;;;;;38.13;26.65;;;9.70;50.60;;;;;;4993541;28;20109;-84
2022/03/24 04:28:03;;;;;;;39.30;29.08;;;9.70;50.10;;;;;;4985540;28;20043;-84
2022/03/24 04:30:29;;;;;;;45.08;28.63;;;9.70;50.20;;;;;;4976988;28;20053;-85
2022/03/24 04:32:55;;;;;;;35.83;25.67;;;9.70;50.10;;;;;;4994839;28;20030;-85
2022/03/24 04:35:21;;;;;;;45.38;29.48;;;9.80;49.90;;;;;;4993915;28;20085;-84
2022/03/24 04:37:49;;;;;;;41.22;29.05;;;9.80;50.00;;;;;;4977154;28;20049;-84
2022/03/24 04:40:16;;;;;;;45.20;28.30;;;9.80;49.80;;;;;;4984331;28;20098;-85
2022/03/24 04:42:49;;;;;;;45.45;29.98;;;9.80;50.90;;;;;;4979489;28;20435;-85
2022/03/24 04:45:17;;;;;;;47.88;28.55;;;9.80;50.70;;;;;;4976957;28;20038;-86
2022/03/24 04:47:43;;;;;;;45.15;28.13;;;9.70;50.70;;;;;;4970684;28;20037;-86
2022/03/24 04:50:10;;;;;;;41.10;29.65;;;9.70;50.70;;;;;;4994904;28;20050;-85
2022/03/24 04:52:35;;;;;;;46.53;28.13;;;9.70;51.10;;;;;;4972792;28;20035;-83
2022/03/24 04:55:02;;;;;;;45.35;29.20;;;9.70;51.40;;;;;;4962261;28;20050;-84
2022/03/24 04:57:29;;;;;;;41.97;27.60;;;9.70;51.20;;;;;;4974184;28;20035;-84
2022/03/24 04:59:57;;;;;;;42.28;28.55;;;9.70;51.30;;;;;;4967940;28;20117;-84
2022/03/24 05:02:24;;;;;;;41.40;28.10;;;9.70;51.50;;;;;;4975702;28;20042;-81
2022/03/24 05:04:51;;;;;;;48.20;28.58;;;9.60;51.50;;;;;;4976710;28;20506;-83
2022/03/24 05:07:20;;;;;;;48.90;26.95;;;9.60;51.80;;;;;;4972693;28;20097;-83
2022/03/24 05:09:50;;;;;;;35.60;26.87;;;9.70;51.60;;;;;;4976446;28;20410;-82
2022/03/24 05:12:16;;;;;;;40.65;26.25;;;9.70;52.00;;;;;;4979167;28;20109;-82
2022/03/24 05:14:43;;;;;;;39.65;27.25;;;9.70;51.70;;;;;;4972855;28;20050;-82
2022/03/24 05:17:09;;;;;;;43.55;27.73;;;9.70;52.30;;;;;;4970867;28;20050;-83
2022/03/24 05:19:36;;;;;;;37.63;27.88;;;9.70;52.30;;;;;;4967811;28;20073;-85
2022/03/24 05:22:02;;;;;;;39.97;27.88;;;9.70;52.10;;;;;;4997895;28;20125;-84
2022/03/24 05:24:28;;;;;;;39.97;26.50;;;9.80;51.90;;;;;;4980400;28;20145;-86
2022/03/24 05:26:55;;;;;;;38.42;26.63;;;9.80;51.30;;;;;;4978818;28;20046;-85
2022/03/24 05:29:21;;;;;;;43.08;27.35;;;9.90;51.50;;;;;;4973479;28;20125;-84
2022/03/24 05:31:50;;;;;;;36.80;27.02;;;9.90;51.40;;;;;;4973529;28;20042;-85
2022/03/24 05:34:16;;;;;;;37.10;27.40;;;9.90;51.50;;;;;;4974284;28;20041;-85
2022/03/24 05:36:45;;;;;;;42.17;27.63;;;9.80;51.80;;;;;;4998153;28;20023;-84
2022/03/24 05:39:14;;;;;;;39.92;27.73;;;9.80;51.70;;;;;;4978456;28;20067;-86
2022/03/24 05:41:48;;;;;;;43.03;28.77;;;9.80;51.90;;;;;;4980674;28;20520;-85
2022/03/24 05:44:14;;;;;;;50.70;28.80;;;9.80;52.20;;;;;;4980248;28;20041;-85
2022/03/24 05:46:44;;;;;;;38.67;27.40;;;9.70;52.30;;;;;;4980537;28;20034;-86
2022/03/24 05:49:15;;;;;;;40.92;27.92;;;9.70;52.30;;;;;;4992496;28;20034;-81
2022/03/24 05:51:44;;;;;;;36.28;26.77;;;9.70;51.70;;;;;;4995720;28;20039;-81
2022/03/24 05:54:15;;;;;;;41.97;27.20;;;9.70;51.80;;;;;;4995833;28;20039;-84
2022/03/24 05:56:45;;;;;;;42.60;27.85;;;9.80;51.50;;;;;;4980163;28;20034;-86
2022/03/24 05:59:11;;;;;;;38.22;23.17;;;9.80;50.60;;;;;;4979982;28;20038;-84
2022/03/24 06:01:39;;;;;;;40.85;25.70;;;9.90;50.10;;;;;;4975721;28;20035;-83
2022/03/24 06:04:05;;;;;;;33.42;23.95;;;10.10;51.50;;;;;;4988131;28;20502;-83
2022/03/24 06:06:34;;;;;;;34.97;24.83;;;10.20;50.10;;;;;;4996912;28;20057;-79
2022/03/24 06:09:03;;;;;;;36.17;24.63;;;10.40;50.00;;;;;;4986180;28;20035;-79
2022/03/24 06:11:30;;;;;;;39.80;25.02;;;10.50;50.40;;;;;;4994578;28;20101;-79
2022/03/24 06:13:55;;;;;;;38.17;25.15;;;10.50;50.90;;;;;;4978864;28;20479;-79
2022/03/24 06:16:22;;;;;;;35.45;25.02;;;10.60;50.80;;;;;;4994559;28;20037;-79
2022/03/24 06:18:47;;;;;;;36.45;24.55;;;10.70;50.70;;;;;;4995589;28;20034;-78
2022/03/24 06:21:14;;;;;;;39.50;25.27;;;10.70;50.90;;;;;;4994790;28;20041;-79
2022/03/24 06:23:40;;;;;;;43.42;26.55;;;10.70;50.40;;;;;;4977727;28;20475;-82
2022/03/24 06:26:06;;;;;;;39.08;24.55;;;10.80;50.20;;;;;;4977123;28;20049;-82
2022/03/24 06:28:32;;;;;;;32.05;24.35;;;10.90;49.70;;;;;;4988666;28;20043;-83
2022/03/24 06:30:58;;;;;;;35.03;23.08;;;10.90;49.00;;;;;;4992128;28;20173;-88
2022/03/24 06:33:23;;;;;;;35.20;23.98;;;11.00;49.50;;;;;;4992105;28;20470;-86
2022/03/24 06:35:49;;;;;;;37.38;21.98;;;11.10;48.90;;;;;;4972148;28;20054;-88
2022/03/24 06:38:17;;;;;;;30.50;20.02;;;11.10;49.20;;;;;;4978666;28;20026;-86
2022/03/24 06:40:43;;;;;;;42.15;24.10;;;11.20;48.40;;;;;;4975192;28;20170;-82
2022/03/24 06:43:12;;;;;;;32.53;21.52;;;11.30;47.50;;;;;;4974466;28;20147;-82
2022/03/24 06:45:39;;;;;;;29.67;20.67;;;11.30;45.80;;;;;;4995273;28;20046;-81
2022/03/24 06:48:09;;;;;;;25.95;17.52;;;11.40;45.70;;;;;;4979408;28;20458;-82
2022/03/24 06:50:35;;;;;;;33.80;18.92;;;11.40;45.10;;;;;;4990820;28;20070;-82
2022/03/24 06:53:02;;;;;;;28.45;20.45;;;11.50;45.30;;;;;;4976508;28;20034;-82
2022/03/24 06:55:28;;;;;;;32.25;22.20;;;11.60;46.00;;;;;;4970803;28;20041;-81
2022/03/24 06:57:54;;;;;;;33.33;20.02;;;11.70;45.30;;;;;;4993478;28;20038;-81
2022/03/24 07:00:21;;;;;;;27.75;19.20;;;11.70;45.20;;;;;;4994886;28;20107;-82
2022/03/24 07:02:47;;;;;;;25.35;15.75;;;11.90;45.70;;;;;;4984201;28;20069;-84
2022/03/24 07:05:13;;;;;;;26.17;16.85;;;12.10;44.30;;;;;;4974396;28;20049;-81
2022/03/24 07:07:40;;;;;;;30.52;16.48;;;12.20;45.00;;;;;;4994269;23;20066;-82
2022/03/24 07:10:07;;;;;;;27.23;15.68;;;12.30;43.00;;;;;;4973215;28;20390;-81
2022/03/24 07:12:34;;;;;;;29.17;14.63;;;12.40;42.70;;;;;;4972755;28;20101;-81
2022/03/24 07:15:03;;;;;;;25.45;14.20;;;12.50;43.70;;;;;;4962725;28;20039;-80
2022/03/24 07:17:29;;;;;;;20.85;14.13;;;12.60;41.80;;;;;;4975631;28;20138;-83
2022/03/24 07:19:56;;;;;;;20.02;13.82;;;12.70;42.40;;;;;;4966139;28;20507;-82
2022/03/24 07:22:22;;;;;;;21.30;14.20;;;12.80;42.90;;;;;;4957944;28;20388;-82
2022/03/24 07:24:48;;;;;;;21.02;13.85;;;12.90;41.90;;;;;;4958209;28;20035;-82
2022/03/24 07:27:16;;;;;;;17.95;12.60;;;13.00;42.20;;;;;;4965333;28;20035;-83
2022/03/24 07:29:42;;;;;;;20.33;11.98;;;13.00;40.90;;;;;;4968343;28;20039;-83
2022/03/24 07:32:09;;;;;;;18.00;11.30;;;13.20;40.40;;;;;;4976498;28;20035;-83
2022/03/24 07:34:35;;;;;;;16.05;9.98;;;13.30;38.90;;;;;;4974536;28;20093;-83
2022/03/24 07:37:04;;;;;;;16.17;9.60;;;13.40;39.00;;;;;;4959144;28;20046;-82
2022/03/24 07:39:30;;;;;;;17.67;9.30;;;13.50;37.80;;;;;;4971208;28;20034;-83
2022/03/24 07:41:55;;;;;;;17.80;9.15;;;13.60;38.30;;;;;;4960098;28;20039;-83
2022/03/24 07:44:21;;;;;;;11.63;7.47;;;13.70;37.30;;;;;;4957574;28;20031;-80
2022/03/24 07:46:47;;;;;;;10.50;7.50;;;13.80;37.90;;;;;;4966023;28;20812;-82
2022/03/24 07:49:12;;;;;;;10.60;7.68;;;13.90;36.90;;;;;;4950644;28;20039;-83
2022/03/24 07:51:39;;;;;;;10.32;7.72;;;14.10;37.30;;;;;;4949632;28;20047;-82
2022/03/24 07:54:07;;;;;;;22.63;10.45;;;14.20;43.10;;;;;;4951568;28;20107;-82
2022/03/24 07:56:34;;;;;;;16.08;9.52;;;14.40;41.20;;;;;;4952459;28;20043;-82
2022/03/24 07:58:59;;;;;;;16.30;9.90;;;14.50;36.10;;;;;;4957618;28;20027;-83
2022/03/24 08:01:30;;;;;;;15.63;10.68;;;14.60;35.60;;;;;;4970683;28;20121;-83
2022/03/24 08:03:58;;;;;;;17.05;10.20;;;14.70;35.40;;;;;;4964782;28;20030;-83
2022/03/24 08:06:24;;;;;;;16.38;10.93;;;14.80;36.40;;;;;;4976708;28;20047;-83
2022/03/24 08:08:50;;;;;;;19.08;12.80;;;14.90;35.20;;;;;;4984450;28;20034;-82
2022/03/24 08:11:16;;;;;;;21.92;13.45;;;15.00;34.00;;;;;;4962324;28;20054;-84
2022/03/24 08:13:42;;;;;;;25.00;15.00;;;15.00;34.20;;;;;;4985865;28;20043;-83
2022/03/24 08:16:08;;;;;;;25.45;17.08;;;15.10;34.20;;;;;;4976367;28;20122;-84
2022/03/24 08:18:33;;;;;;;31.50;20.02;;;15.20;33.20;;;;;;4975872;28;20026;-83
2022/03/24 08:20:59;;;;;;;28.27;19.88;;;15.30;32.50;;;;;;4958735;28;20054;-83
2022/03/24 08:23:25;;;;;;;25.70;19.20;;;15.40;33.10;;;;;;4980991;28;20027;-83
2022/03/24 08:25:51;;;;;;;25.90;19.95;;;15.50;33.00;;;;;;4959218;28;20422;-83
2022/03/24 08:28:17;;;;;;;27.05;20.15;;;15.60;32.50;;;;;;4985353;28;20081;-82
2022/03/24 08:30:47;;;;;;;31.48;20.35;;;15.80;33.10;;;;;;4983072;28;20086;-81
2022/03/24 08:33:13;;;;;;;29.63;21.38;;;15.90;33.70;;;;;;4992141;28;20045;-81
2022/03/24 08:35:42;;;;;;;32.75;19.92;;;16.00;31.60;;;;;;4979828;28;20892;-82
2022/03/24 08:38:10;;;;;;;27.95;19.80;;;16.10;31.90;;;;;;4970938;28;20057;-82
2022/03/24 08:40:36;;;;;;;24.17;17.35;;;16.20;32.00;;;;;;4989801;28;20046;-81
2022/03/24 08:43:03;;;;;;;23.60;17.42;;;16.30;33.00;;;;;;4980211;28;20034;-82
2022/03/24 08:45:30;;;;;;;25.83;18.15;;;16.50;33.30;;;;;;4977120;28;20541;-82
2022/03/24 08:47:55;;;;;;;23.73;17.17;;;16.70;31.70;;;;;;4973440;28;20046;-82
2022/03/24 08:50:22;;;;;;;19.90;16.02;;;16.80;32.30;;;;;;4979898;28;20106;-82
2022/03/24 08:52:48;;;;;;;20.08;16.17;;;17.00;33.00;;;;;;4977531;28;20563;-83
2022/03/24 08:55:14;;;;;;;21.15;16.40;;;17.20;32.70;;;;;;4983068;28;20382;-82
2022/03/24 08:57:42;;;;;;;26.17;16.38;;;17.40;32.70;;;;;;4984339;28;20096;-82
2022/03/24 09:00:15;;;;;;;26.20;18.15;;;17.50;32.10;;;;;;4983745;28;20058;-79
2022/03/24 09:02:46;;;;;;;25.35;18.17;;;17.70;29.30;;;;;;4992229;28;20074;-79
2022/03/24 09:05:13;;;;;;;25.98;18.50;;;17.80;30.80;;;;;;4981433;28;20061;-78
2022/03/24 09:07:40;;;;;;;31.00;19.80;;;18.00;30.40;;;;;;4965544;28;20038;-78
2022/03/24 09:10:07;;;;;;;23.65;17.33;;;18.00;29.60;;;;;;4998437;28;20378;-82
2022/03/24 09:12:35;;;;;;;22.02;16.33;;;18.20;29.70;;;;;;4977331;28;20479;-81
2022/03/24 09:15:05;;;;;;;22.13;17.02;;;18.30;29.60;;;;;;4988028;28;20093;-81
2022/03/24 09:17:31;;;;;;;23.65;16.33;;;18.50;29.30;;;;;;4989079;28;20490;-81
2022/03/24 09:19:57;;;;;;;22.60;15.80;;;18.70;29.70;;;;;;4978942;28;20031;-82
2022/03/24 09:22:22;;;;;;;25.13;16.40;;;18.80;29.20;;;;;;4977492;28;20537;-82
2022/03/24 09:24:48;;;;;;;23.58;16.15;;;18.90;28.40;;;;;;4974852;28;20031;-82
2022/03/24 09:27:14;;;;;;;17.33;14.20;;;19.10;28.40;;;;;;4975664;28;20038;-81
2022/03/24 09:29:41;;;;;;;25.00;14.20;;;19.20;27.20;;;;;;5011827;28;20061;-81
2022/03/24 09:32:12;;;;;;;18.55;13.60;;;19.30;28.20;;;;;;4997640;28;20022;-82
2022/03/24 09:34:41;;;;;;;17.90;12.55;;;19.50;26.80;;;;;;4982387;28;20031;-83
2022/03/24 09:37:09;;;;;;;19.27;14.38;;;19.60;26.20;;;;;;4990528;28;20041;-82
2022/03/24 09:39:35;;;;;;;21.10;14.50;;;19.70;25.10;;;;;;4975432;28;20037;-83
2022/03/24 09:42:00;;;;;;;22.33;14.77;;;19.70;26.40;;;;;;4969578;28;20049;-84
2022/03/24 09:44:27;;;;;;;19.58;14.95;;;19.70;27.50;;;;;;4993776;28;20034;-83
2022/03/24 09:46:53;;;;;;;23.75;14.95;;;20.00;28.40;;;;;;4971645;28;20034;-83
2022/03/24 09:49:19;;;;;;;25.27;16.80;;;20.10;28.90;;;;;;4993222;28;20113;-79
2022/03/24 09:51:44;;;;;;;25.27;16.48;;;20.20;27.80;;;;;;4975619;28;20050;-79
2022/03/24 09:54:11;;;;;;;25.70;16.23;;;20.40;28.40;;;;;;4992949;28;20117;-79
2022/03/24 09:56:39;;;;;;;23.15;15.63;;;20.50;28.70;;;;;;4993021;28;20034;-78
2022/03/24 09:59:09;;;;;;;29.63;16.33;;;20.70;28.70;;;;;;4992379;28;20491;-83
2022/03/24 10:01:36;;;;;;;28.23;17.20;;;20.90;28.60;;;;;;4997727;28;20069;-83
2022/03/24 10:04:05;;;;;;;29.23;16.88;;;21.10;28.40;;;;;;4997496;28;20270;-83
2022/03/24 10:06:31;;;;;;;26.70;16.30;;;21.30;28.40;;;;;;4997274;28;20532;-83
2022/03/24 10:08:58;;;;;;;28.70;17.38;;;21.50;28.50;;;;;;4996229;28;20062;-83
2022/03/24 10:11:27;;;;;;;36.88;16.65;;;21.60;28.60;;;;;;4988446;28;20046;-82
2022/03/24 10:13:57;;;;;;;28.85;15.40;;;21.70;28.50;;;;;;4997422;28;20370;-83
2022/03/24 10:16:32;;;;;;;26.48;15.50;;;21.90;28.80;;;;;;4980066;28;20393;-82
2022/03/24 10:19:13;;;;;;;26.48;15.00;;;22.00;29.30;;;;;;4979394;28;20457;-82
2022/03/24 10:21:41;;;;;;;22.65;15.75;;;22.10;29.20;;;;;;4979375;28;20067;-82
2022/03/24 10:24:13;;;;;;;33.00;16.63;;;22.30;29.10;;;;;;4997128;28;20070;-82
2022/03/24 10:26:51;;;;;;;32.53;17.67;;;22.40;29.30;;;;;;4996597;28;20125;-83
2022/03/24 10:29:22;;;;;;;25.70;16.80;;;22.50;29.00;;;;;;4976707;28;20525;-82
2022/03/24 10:31:57;;;;;;;31.48;16.83;;;22.60;28.90;;;;;;4974529;28;20078;-83
2022/03/24 10:34:40;;;;;;;24.60;16.17;;;22.70;28.90;;;;;;4995435;28;20034;-82
2022/03/24 10:37:06;;;;;;;31.55;18.10;;;22.80;28.50;;;;;;4984649;28;20038;-80
2022/03/24 10:39:37;;;;;;;21.52;16.92;;;23.00;29.10;;;;;;4966893;28;20038;-79
2022/03/24 10:42:12;;;;;;;;;;;23.10;29.50;;;;;;4981929;28;20110;-79
2022/03/24 10:44:58;;;;;;;26.42;17.90;;;23.20;29.30;;;;;;4987783;28;20008;-78
2022/03/24 10:47:51;;;;;;;27.77;18.88;;;23.30;29.30;;;;;;4996649;28;20026;-83
2022/03/24 10:50:30;;;;;;;26.98;18.65;;;23.30;28.70;;;;;;4996787;28;20038;-82
2022/03/24 10:53:10;;;;;;;22.17;18.23;;;23.30;28.60;;;;;;4996573;28;20483;-82
2022/03/24 10:55:51;;;;;;;27.83;18.20;;;23.40;28.70;;;;;;4996750;28;20035;-83
2022/03/24 10:58:38;;;;;;;25.00;18.65;;;23.60;29.10;;;;;;4997024;28;20038;-83
2022/03/24 11:01:07;;;;;;;30.25;19.92;;;23.70;28.70;;;;;;4996105;28;20122;-83
2022/03/24 11:03:34;;;;;;;28.33;19.17;;;23.80;28.80;;;;;;4986922;28;20038;-83
2022/03/24 11:06:13;;;;;;;25.63;18.42;;;23.90;28.70;;;;;;4977788;28;20101;-83
2022/03/24 11:08:42;;;;;;;26.40;17.38;;;24.10;28.50;;;;;;4994316;28;20026;-82
2022/03/24 11:11:15;;;;;;;26.15;19.92;;;24.30;28.90;;;;;;4995279;28;20038;-83
2022/03/24 11:13:47;;;;;;;26.13;19.08;;;24.40;28.30;;;;;;4976091;28;20157;-83
2022/03/24 11:16:13;;;;;;;31.13;19.85;;;24.60;28.20;;;;;;4992630;28;20478;-79
2022/03/24 11:18:40;;;;;;;30.15;20.23;;;24.70;27.50;;;;;;4993478;28;20062;-79
2022/03/24 11:21:13;;;;;;;28.05;20.38;;;24.80;27.50;;;;;;4993605;28;20088;-79
2022/03/24 11:23:42;;;;;;;25.00;20.52;;;24.80;26.50;;;;;;4991565;28;20030;-79
2022/03/24 11:26:10;;;;;;;25.75;19.80;;;24.80;26.70;;;;;;4993482;28;20042;-79
2022/03/24 11:28:37;;;;;;;29.08;20.63;;;24.90;26.90;;;;;;4993344;28;20042;-79
2022/03/24 11:31:15;;;;;;;28.25;20.13;;;24.90;26.60;;;;;;4986418;28;20082;-79
2022/03/24 11:33:50;;;;;;;27.98;20.85;;;25.00;25.90;;;;;;4980274;28;20030;-79
2022/03/24 11:36:19;;;;;;;29.13;21.08;;;25.20;26.50;;;;;;4994146;28;20066;-79
2022/03/24 11:39:06;;;;;;;27.33;21.02;;;25.40;26.00;;;;;;4992275;28;20034;-79
2022/03/24 11:41:45;;;;;;;22.88;19.90;;;25.60;25.70;;;;;;4993089;28;20065;-79
2022/03/24 11:44:18;;;;;;;34.45;21.70;;;25.90;24.90;;;;;;4992455;28;20046;-79
2022/03/24 11:47:01;;;;;;;33.55;20.35;;;26.30;25.00;;;;;;4973687;28;20039;-79
2022/03/24 11:49:30;;;;;;;30.63;22.27;;;26.60;25.10;;;;;;4992382;28;20450;-80
2022/03/24 11:51:56;;;;;;;28.25;20.70;;;26.90;24.70;;;;;;4977973;28;20181;-84
2022/03/24 11:54:37;;;;;;;25.77;19.85;;;27.30;24.70;;;;;;4994574;28;20519;-84
2022/03/24 11:57:22;;;;;;;36.70;22.13;;;27.50;24.40;;;;;;4976520;28;20066;-84
2022/03/24 12:00:13;;;;;;;28.88;21.58;;;27.90;23.90;;;;;;4976989;28;20125;-84
2022/03/24 12:02:44;;;;;;;31.48;23.30;;;28.00;23.80;;;;;;4944137;28;20042;-84
2022/03/24 12:05:11;;;;;;;29.27;23.20;;;28.00;23.60;;;;;;4995895;28;20034;-85
2022/03/24 12:07:37;;;;;;;27.17;22.55;;;28.10;23.60;;;;;;4994840;28;20038;-84
2022/03/24 12:10:15;;;;;;;32.42;24.45;;;28.40;23.60;;;;;;4978666;28;20534;-85
2022/03/24 12:13:21;;;;;;;40.63;25.10;;;28.50;23.70;;;;;;4991209;28;20042;-84
2022/03/24 12:16:13;;;;;;;31.92;25.20;;;28.70;23.10;;;;;;4978903;28;20034;-83
2022/03/24 12:18:40;;;;;;;36.22;28.27;;;29.00;22.90;;;;;;4978390;28;20046;-83
2022/03/24 12:21:06;;;;;;;37.88;27.90;;;28.80;22.00;;;;;;4994831;28;20113;-84
2022/03/24 12:24:09;;;;;;;45.47;26.70;;;28.90;22.20;;;;;;4995170;28;20113;-84
2022/03/24 12:27:04;;;;;;;35.53;27.10;;;28.80;22.20;;;;;;4995344;28;20043;-84
2022/03/24 12:29:30;;;;;;;46.08;28.15;;;28.70;22.20;;;;;;4992835;28;20041;-84
2022/03/24 12:32:02;;;;;;;39.85;28.95;;;28.80;22.20;;;;;;4995073;28;20027;-84
2022/03/24 12:34:29;;;;;;;41.30;30.48;;;29.00;22.60;;;;;;4977498;28;20035;-84
2022/03/24 12:36:55;;;;;;;44.55;31.80;;;29.00;21.90;;;;;;4995195;28;20042;-84